WCA weather

Gamboa Airport
Castro, Los Lagos Region, Chile

Public forecast

Using degrees Celsius for public forecast. Weather courtesy of forecast.io.

Closest aviation weather report (METAR) to Gamboa Airport

Closest report is Mocopulli Airport, 9.3 nm (17.3 km) NNE. Retrieved 2019/10/15 09:00 UTC (49 minutes ago):

SCPQ 150900Z AUTO 00000KT CAVOK 09/04 Q1018

Closest aviation forecast (TAF) to Gamboa Airport

Forecast is more than 12 hours old.

Closest forecast is Mocopulli Airport, 9.3 nm (17.3 km) NNE. Retrieved 2019/10/14 12:00 UTC (22 hours ago):

TAF SCPQ 141031Z 1412/1424 17010KT CAVOK TN06/1412Z TX16/1419Z BECMG 1421/1423 VRB03KT